Terminal Aerodrome Forecast
Issued by NWS Jackson, MS

Home | Current Version | Previous Version | Text Only | Print | Product List | Glossary On
Versions: 1 2 3 4 5 6 7 8 9 10 11 12 13 14 15 16 17 18 19
000
FTUS44 KJAN 181720
TAFGWO
TAF
KGWO 181720Z 1818/1918 11006KT P6SM VCSH OVC016
     FM182000 11010KT 6SM -RA VCTS SCT020 OVC035CB
     FM190200 14008KT P6SM -RA SCT006 OVC015
     FM190300 16008KT P6SM OVC007
     FM190900 28005KT 4SM BR OVC005
     FM191600 23007KT P6SM OVC015=

USA.gov is the U.S. government's official web portal to all federal, state and local government web resources and services.